sensor_id;sensor_type;location;lat;lon;timestamp;P1;durP1;ratioP1;P2;durP2;ratioP2
66575;SDS011;53428;47.686;16.584;2022-10-16T00:01:45;73.03;;;42.95;;
66575;SDS011;53428;47.686;16.584;2022-10-16T00:06:44;84.00;;;43.97;;
66575;SDS011;53428;47.686;16.584;2022-10-16T00:11:44;130.93;;;49.22;;
66575;SDS011;53428;47.686;16.584;2022-10-16T00:16:43;71.97;;;44.83;;
66575;SDS011;53428;47.686;16.584;2022-10-16T00:21:43;133.68;;;47.67;;
66575;SDS011;53428;47.686;16.584;2022-10-16T00:26:42;74.63;;;42.25;;
66575;SDS011;53428;47.686;16.584;2022-10-16T00:31:42;69.45;;;45.08;;
66575;SDS011;53428;47.686;16.584;2022-10-16T00:36:41;78.53;;;44.47;;
66575;SDS011;53428;47.686;16.584;2022-10-16T00:41:40;75.72;;;46.15;;
66575;SDS011;53428;47.686;16.584;2022-10-16T00:46:40;88.43;;;45.13;;
66575;SDS011;53428;47.686;16.584;2022-10-16T00:51:51;105.65;;;48.50;;
66575;SDS011;53428;47.686;16.584;2022-10-16T00:56:53;86.13;;;44.92;;
66575;SDS011;53428;47.686;16.584;2022-10-16T01:01:53;224.18;;;51.58;;
66575;SDS011;53428;47.686;16.584;2022-10-16T01:07:03;85.20;;;46.50;;
66575;SDS011;53428;47.686;16.584;2022-10-16T01:12:13;78.35;;;42.88;;
66575;SDS011;53428;47.686;16.584;2022-10-16T01:17:20;94.95;;;45.83;;
66575;SDS011;53428;47.686;16.584;2022-10-16T01:22:25;93.05;;;47.28;;
66575;SDS011;53428;47.686;16.584;2022-10-16T01:27:33;86.97;;;44.67;;
66575;SDS011;53428;47.686;16.584;2022-10-16T01:37:53;140.65;;;48.92;;
66575;SDS011;53428;47.686;16.584;2022-10-16T01:43:08;71.63;;;43.03;;
66575;SDS011;53428;47.686;16.584;2022-10-16T01:48:12;74.00;;;41.13;;
66575;SDS011;53428;47.686;16.584;2022-10-16T01:53:14;76.13;;;45.38;;
66575;SDS011;53428;47.686;16.584;2022-10-16T01:58:14;122.75;;;45.88;;
66575;SDS011;53428;47.686;16.584;2022-10-16T02:03:14;79.10;;;43.67;;
66575;SDS011;53428;47.686;16.584;2022-10-16T02:08:17;74.45;;;43.03;;
66575;SDS011;53428;47.686;16.584;2022-10-16T02:18:26;106.32;;;48.30;;
66575;SDS011;53428;47.686;16.584;2022-10-16T02:23:32;125.30;;;54.25;;
66575;SDS011;53428;47.686;16.584;2022-10-16T02:28:45;110.60;;;52.83;;
66575;SDS011;53428;47.686;16.584;2022-10-16T02:33:48;114.13;;;54.33;;
66575;SDS011;53428;47.686;16.584;2022-10-16T02:38:49;109.38;;;53.72;;
66575;SDS011;53428;47.686;16.584;2022-10-16T02:43:49;133.32;;;53.83;;
66575;SDS011;53428;47.686;16.584;2022-10-16T02:48:48;96.28;;;49.78;;
66575;SDS011;53428;47.686;16.584;2022-10-16T02:58:51;88.55;;;47.13;;
66575;SDS011;53428;47.686;16.584;2022-10-16T03:03:50;85.20;;;45.83;;
66575;SDS011;53428;47.686;16.584;2022-10-16T03:08:50;85.93;;;45.60;;
66575;SDS011;53428;47.686;16.584;2022-10-16T03:13:49;92.63;;;45.67;;
66575;SDS011;53428;47.686;16.584;2022-10-16T03:18:49;77.30;;;44.50;;
66575;SDS011;53428;47.686;16.584;2022-10-16T03:23:48;77.78;;;44.20;;
66575;SDS011;53428;47.686;16.584;2022-10-16T03:28:48;72.57;;;42.65;;
66575;SDS011;53428;47.686;16.584;2022-10-16T03:33:47;74.05;;;41.13;;
66575;SDS011;53428;47.686;16.584;2022-10-16T03:38:46;74.25;;;41.88;;
66575;SDS011;53428;47.686;16.584;2022-10-16T03:43:46;69.20;;;39.85;;
66575;SDS011;53428;47.686;16.584;2022-10-16T03:48:45;71.30;;;42.30;;
66575;SDS011;53428;47.686;16.584;2022-10-16T03:53:45;75.80;;;45.00;;
66575;SDS011;53428;47.686;16.584;2022-10-16T03:58:44;82.65;;;46.45;;
66575;SDS011;53428;47.686;16.584;2022-10-16T04:03:43;87.53;;;45.40;;
66575;SDS011;53428;47.686;16.584;2022-10-16T04:08:43;71.85;;;40.67;;
66575;SDS011;53428;47.686;16.584;2022-10-16T04:13:42;77.18;;;41.85;;
66575;SDS011;53428;47.686;16.584;2022-10-16T04:18:42;77.65;;;44.75;;
66575;SDS011;53428;47.686;16.584;2022-10-16T04:23:42;64.03;;;37.65;;
66575;SDS011;53428;47.686;16.584;2022-10-16T04:28:41;59.50;;;37.05;;
66575;SDS011;53428;47.686;16.584;2022-10-16T04:33:42;64.50;;;38.88;;
66575;SDS011;53428;47.686;16.584;2022-10-16T04:38:42;58.67;;;36.55;;
66575;SDS011;53428;47.686;16.584;2022-10-16T04:43:41;57.30;;;36.85;;
66575;SDS011;53428;47.686;16.584;2022-10-16T04:48:40;61.88;;;39.17;;
66575;SDS011;53428;47.686;16.584;2022-10-16T04:53:39;62.25;;;36.97;;
66575;SDS011;53428;47.686;16.584;2022-10-16T04:58:39;72.78;;;41.00;;
66575;SDS011;53428;47.686;16.584;2022-10-16T05:03:38;77.03;;;42.88;;
66575;SDS011;53428;47.686;16.584;2022-10-16T05:08:37;78.35;;;45.17;;
66575;SDS011;53428;47.686;16.584;2022-10-16T05:13:36;76.30;;;42.95;;
66575;SDS011;53428;47.686;16.584;2022-10-16T05:18:36;79.93;;;44.80;;
66575;SDS011;53428;47.686;16.584;2022-10-16T05:23:35;82.35;;;45.22;;
66575;SDS011;53428;47.686;16.584;2022-10-16T05:28:34;75.38;;;43.60;;
66575;SDS011;53428;47.686;16.584;2022-10-16T05:33:34;71.55;;;40.03;;
66575;SDS011;53428;47.686;16.584;2022-10-16T05:38:34;91.38;;;42.67;;
66575;SDS011;53428;47.686;16.584;2022-10-16T05:43:34;134.40;;;41.90;;
66575;SDS011;53428;47.686;16.584;2022-10-16T05:48:33;77.18;;;43.50;;
66575;SDS011;53428;47.686;16.584;2022-10-16T05:53:33;115.97;;;43.70;;
66575;SDS011;53428;47.686;16.584;2022-10-16T05:58:35;79.30;;;45.15;;
66575;SDS011;53428;47.686;16.584;2022-10-16T06:03:36;149.07;;;42.10;;
66575;SDS011;53428;47.686;16.584;2022-10-16T06:08:35;81.38;;;39.83;;
66575;SDS011;53428;47.686;16.584;2022-10-16T06:13:34;107.38;;;40.40;;
66575;SDS011;53428;47.686;16.584;2022-10-16T06:18:34;68.30;;;38.38;;
66575;SDS011;53428;47.686;16.584;2022-10-16T06:23:33;53.70;;;34.53;;
66575;SDS011;53428;47.686;16.584;2022-10-16T06:28:32;62.08;;;38.13;;
66575;SDS011;53428;47.686;16.584;2022-10-16T06:33:32;65.82;;;40.10;;
66575;SDS011;53428;47.686;16.584;2022-10-16T06:38:32;79.85;;;41.28;;
66575;SDS011;53428;47.686;16.584;2022-10-16T06:43:31;80.82;;;37.47;;
66575;SDS011;53428;47.686;16.584;2022-10-16T06:48:31;87.75;;;36.25;;
66575;SDS011;53428;47.686;16.584;2022-10-16T06:53:32;59.40;;;36.55;;
66575;SDS011;53428;47.686;16.584;2022-10-16T06:58:33;54.95;;;34.22;;
66575;SDS011;53428;47.686;16.584;2022-10-16T07:03:32;52.67;;;31.73;;
66575;SDS011;53428;47.686;16.584;2022-10-16T07:08:32;50.75;;;31.00;;
66575;SDS011;53428;47.686;16.584;2022-10-16T07:13:36;39.47;;;28.00;;
66575;SDS011;53428;47.686;16.584;2022-10-16T07:18:37;46.65;;;29.15;;
66575;SDS011;53428;47.686;16.584;2022-10-16T07:23:41;42.50;;;30.17;;
66575;SDS011;53428;47.686;16.584;2022-10-16T07:28:40;41.42;;;28.73;;
66575;SDS011;53428;47.686;16.584;2022-10-16T07:33:42;52.53;;;31.13;;
66575;SDS011;53428;47.686;16.584;2022-10-16T07:38:44;54.78;;;34.75;;
66575;SDS011;53428;47.686;16.584;2022-10-16T07:43:47;59.92;;;36.90;;
66575;SDS011;53428;47.686;16.584;2022-10-16T07:48:48;57.03;;;37.78;;
66575;SDS011;53428;47.686;16.584;2022-10-16T07:53:47;63.83;;;40.65;;
66575;SDS011;53428;47.686;16.584;2022-10-16T07:58:47;65.18;;;41.60;;
66575;SDS011;53428;47.686;16.584;2022-10-16T08:03:49;69.88;;;43.63;;
66575;SDS011;53428;47.686;16.584;2022-10-16T08:08:49;68.43;;;41.83;;
66575;SDS011;53428;47.686;16.584;2022-10-16T08:13:49;61.20;;;39.22;;
66575;SDS011;53428;47.686;16.584;2022-10-16T08:18:48;61.50;;;38.58;;
66575;SDS011;53428;47.686;16.584;2022-10-16T08:23:50;54.90;;;36.83;;
66575;SDS011;53428;47.686;16.584;2022-10-16T08:28:50;50.42;;;33.70;;
66575;SDS011;53428;47.686;16.584;2022-10-16T08:33:50;60.85;;;37.15;;
66575;SDS011;53428;47.686;16.584;2022-10-16T08:38:51;59.22;;;39.10;;
66575;SDS011;53428;47.686;16.584;2022-10-16T08:43:56;64.07;;;39.42;;
66575;SDS011;53428;47.686;16.584;2022-10-16T08:49:35;57.92;;;40.42;;
66575;SDS011;53428;47.686;16.584;2022-10-16T08:54:36;57.53;;;38.20;;
66575;SDS011;53428;47.686;16.584;2022-10-16T08:59:40;54.20;;;38.60;;
66575;SDS011;53428;47.686;16.584;2022-10-16T09:20:40;61.53;;;39.25;;
66575;SDS011;53428;47.686;16.584;2022-10-16T09:25:48;57.75;;;41.20;;
66575;SDS011;53428;47.686;16.584;2022-10-16T09:30:48;63.30;;;40.65;;
66575;SDS011;53428;47.686;16.584;2022-10-16T09:35:49;55.08;;;38.70;;
66575;SDS011;53428;47.686;16.584;2022-10-16T09:40:49;56.80;;;38.42;;
66575;SDS011;53428;47.686;16.584;2022-10-16T09:46:09;60.50;;;39.92;;
66575;SDS011;53428;47.686;16.584;2022-10-16T09:56:34;56.45;;;35.95;;
66575;SDS011;53428;47.686;16.584;2022-10-16T10:01:41;59.38;;;37.13;;
66575;SDS011;53428;47.686;16.584;2022-10-16T10:06:45;49.67;;;35.08;;
66575;SDS011;53428;47.686;16.584;2022-10-16T10:11:58;53.97;;;34.65;;
66575;SDS011;53428;47.686;16.584;2022-10-16T10:49:00;45.80;;;32.95;;
66575;SDS011;53428;47.686;16.584;2022-10-16T10:54:24;51.65;;;32.95;;
66575;SDS011;53428;47.686;16.584;2022-10-16T11:10:11;41.97;;;31.58;;
66575;SDS011;53428;47.686;16.584;2022-10-16T11:20:27;37.42;;;29.73;;
66575;SDS011;53428;47.686;16.584;2022-10-16T11:25:48;43.00;;;29.75;;
66575;SDS011;53428;47.686;16.584;2022-10-16T11:36:15;38.60;;;29.20;;
66575;SDS011;53428;47.686;16.584;2022-10-16T11:41:29;34.15;;;28.58;;
66575;SDS011;53428;47.686;16.584;2022-10-16T11:46:35;31.02;;;27.67;;
66575;SDS011;53428;47.686;16.584;2022-10-16T11:51:40;38.28;;;31.08;;
66575;SDS011;53428;47.686;16.584;2022-10-16T11:56:47;32.28;;;28.83;;
66575;SDS011;53428;47.686;16.584;2022-10-16T12:01:57;32.88;;;27.42;;
66575;SDS011;53428;47.686;16.584;2022-10-16T12:07:14;31.27;;;25.80;;
66575;SDS011;53428;47.686;16.584;2022-10-16T12:17:36;31.35;;;25.10;;
66575;SDS011;53428;47.686;16.584;2022-10-16T12:22:37;31.63;;;26.23;;
66575;SDS011;53428;47.686;16.584;2022-10-16T12:27:53;28.13;;;23.40;;
66575;SDS011;53428;47.686;16.584;2022-10-16T12:33:24;28.52;;;23.73;;
66575;SDS011;53428;47.686;16.584;2022-10-16T12:38:45;27.90;;;25.02;;
66575;SDS011;53428;47.686;16.584;2022-10-16T12:43:48;26.27;;;23.27;;
66575;SDS011;53428;47.686;16.584;2022-10-16T12:48:47;28.77;;;23.67;;
66575;SDS011;53428;47.686;16.584;2022-10-16T12:53:57;27.23;;;24.02;;
66575;SDS011;53428;47.686;16.584;2022-10-16T13:04:17;26.85;;;24.13;;
66575;SDS011;53428;47.686;16.584;2022-10-16T13:29:53;22.85;;;20.48;;
66575;SDS011;53428;47.686;16.584;2022-10-16T13:34:59;28.15;;;23.95;;
66575;SDS011;53428;47.686;16.584;2022-10-16T13:40:12;26.73;;;23.60;;
66575;SDS011;53428;47.686;16.584;2022-10-16T13:45:20;31.65;;;26.10;;
66575;SDS011;53428;47.686;16.584;2022-10-16T13:50:22;25.60;;;21.58;;
66575;SDS011;53428;47.686;16.584;2022-10-16T13:55:21;25.85;;;21.85;;
66575;SDS011;53428;47.686;16.584;2022-10-16T14:00:22;28.95;;;23.52;;
66575;SDS011;53428;47.686;16.584;2022-10-16T14:05:24;33.05;;;22.58;;
66575;SDS011;53428;47.686;16.584;2022-10-16T14:10:25;37.10;;;28.70;;
66575;SDS011;53428;47.686;16.584;2022-10-16T14:15:29;26.67;;;22.48;;
66575;SDS011;53428;47.686;16.584;2022-10-16T14:20:31;31.20;;;24.50;;
66575;SDS011;53428;47.686;16.584;2022-10-16T14:25:33;31.35;;;24.48;;
66575;SDS011;53428;47.686;16.584;2022-10-16T14:30:34;31.00;;;23.05;;
66575;SDS011;53428;47.686;16.584;2022-10-16T14:35:36;36.63;;;24.02;;
66575;SDS011;53428;47.686;16.584;2022-10-16T14:40:37;29.50;;;22.80;;
66575;SDS011;53428;47.686;16.584;2022-10-16T14:45:36;35.78;;;25.13;;
66575;SDS011;53428;47.686;16.584;2022-10-16T14:50:40;29.35;;;22.95;;
66575;SDS011;53428;47.686;16.584;2022-10-16T14:55:40;32.40;;;24.38;;
66575;SDS011;53428;47.686;16.584;2022-10-16T15:00:40;31.88;;;22.98;;
66575;SDS011;53428;47.686;16.584;2022-10-16T15:05:40;33.67;;;23.20;;
66575;SDS011;53428;47.686;16.584;2022-10-16T15:10:41;33.33;;;22.35;;
66575;SDS011;53428;47.686;16.584;2022-10-16T15:15:43;35.28;;;21.27;;
66575;SDS011;53428;47.686;16.584;2022-10-16T15:20:44;30.73;;;21.58;;
66575;SDS011;53428;47.686;16.584;2022-10-16T15:30:49;32.67;;;22.13;;
66575;SDS011;53428;47.686;16.584;2022-10-16T15:35:50;31.92;;;23.50;;
66575;SDS011;53428;47.686;16.584;2022-10-16T15:40:50;31.30;;;23.75;;
66575;SDS011;53428;47.686;16.584;2022-10-16T15:46:00;34.80;;;23.85;;
66575;SDS011;53428;47.686;16.584;2022-10-16T15:51:04;35.08;;;22.58;;
66575;SDS011;53428;47.686;16.584;2022-10-16T15:56:05;29.33;;;22.05;;
66575;SDS011;53428;47.686;16.584;2022-10-16T16:01:05;32.33;;;22.10;;
66575;SDS011;53428;47.686;16.584;2022-10-16T16:06:05;37.60;;;22.92;;
66575;SDS011;53428;47.686;16.584;2022-10-16T16:11:07;40.10;;;24.42;;
66575;SDS011;53428;47.686;16.584;2022-10-16T16:16:09;37.45;;;25.80;;
66575;SDS011;53428;47.686;16.584;2022-10-16T16:21:13;43.88;;;26.02;;
66575;SDS011;53428;47.686;16.584;2022-10-16T16:26:13;35.92;;;26.38;;
66575;SDS011;53428;47.686;16.584;2022-10-16T16:31:29;42.28;;;28.58;;
66575;SDS011;53428;47.686;16.584;2022-10-16T16:36:29;52.13;;;26.45;;
66575;SDS011;53428;47.686;16.584;2022-10-16T16:41:29;34.42;;;24.52;;
66575;SDS011;53428;47.686;16.584;2022-10-16T16:46:28;40.30;;;25.75;;
66575;SDS011;53428;47.686;16.584;2022-10-16T16:51:29;46.97;;;27.80;;
66575;SDS011;53428;47.686;16.584;2022-10-16T16:56:28;43.55;;;27.33;;
66575;SDS011;53428;47.686;16.584;2022-10-16T17:01:28;46.78;;;27.55;;
66575;SDS011;53428;47.686;16.584;2022-10-16T17:06:28;49.47;;;28.77;;
66575;SDS011;53428;47.686;16.584;2022-10-16T17:11:28;46.40;;;29.98;;
66575;SDS011;53428;47.686;16.584;2022-10-16T17:16:30;37.70;;;28.13;;
66575;SDS011;53428;47.686;16.584;2022-10-16T17:21:31;39.55;;;26.42;;
66575;SDS011;53428;47.686;16.584;2022-10-16T17:26:30;41.60;;;27.35;;
66575;SDS011;53428;47.686;16.584;2022-10-16T17:31:31;42.53;;;26.85;;
66575;SDS011;53428;47.686;16.584;2022-10-16T17:36:33;41.05;;;28.00;;
66575;SDS011;53428;47.686;16.584;2022-10-16T17:41:34;43.40;;;27.02;;
66575;SDS011;53428;47.686;16.584;2022-10-16T17:46:34;43.42;;;29.02;;
66575;SDS011;53428;47.686;16.584;2022-10-16T17:51:34;43.30;;;29.50;;
66575;SDS011;53428;47.686;16.584;2022-10-16T17:56:34;46.28;;;29.77;;
66575;SDS011;53428;47.686;16.584;2022-10-16T18:01:39;54.40;;;30.98;;
66575;SDS011;53428;47.686;16.584;2022-10-16T18:06:40;48.05;;;29.80;;
66575;SDS011;53428;47.686;16.584;2022-10-16T18:11:41;55.03;;;33.03;;
66575;SDS011;53428;47.686;16.584;2022-10-16T18:16:41;50.88;;;33.22;;
66575;SDS011;53428;47.686;16.584;2022-10-16T18:21:40;49.00;;;31.27;;
66575;SDS011;53428;47.686;16.584;2022-10-16T18:26:40;46.72;;;31.95;;
66575;SDS011;53428;47.686;16.584;2022-10-16T18:31:39;55.15;;;33.40;;
66575;SDS011;53428;47.686;16.584;2022-10-16T18:36:39;49.05;;;33.60;;
66575;SDS011;53428;47.686;16.584;2022-10-16T18:41:41;52.30;;;34.63;;
66575;SDS011;53428;47.686;16.584;2022-10-16T18:46:45;59.47;;;34.10;;
66575;SDS011;53428;47.686;16.584;2022-10-16T18:51:44;57.00;;;36.05;;
66575;SDS011;53428;47.686;16.584;2022-10-16T18:56:46;54.03;;;35.03;;
66575;SDS011;53428;47.686;16.584;2022-10-16T19:01:47;58.17;;;35.70;;
66575;SDS011;53428;47.686;16.584;2022-10-16T19:06:48;55.83;;;34.28;;
66575;SDS011;53428;47.686;16.584;2022-10-16T19:11:50;55.95;;;36.42;;
66575;SDS011;53428;47.686;16.584;2022-10-16T19:16:49;61.40;;;34.75;;
66575;SDS011;53428;47.686;16.584;2022-10-16T19:21:49;61.13;;;36.00;;
66575;SDS011;53428;47.686;16.584;2022-10-16T19:26:53;58.05;;;35.70;;
66575;SDS011;53428;47.686;16.584;2022-10-16T19:31:53;59.22;;;35.47;;
66575;SDS011;53428;47.686;16.584;2022-10-16T19:36:52;59.15;;;36.03;;
66575;SDS011;53428;47.686;16.584;2022-10-16T19:41:51;54.92;;;34.70;;
66575;SDS011;53428;47.686;16.584;2022-10-16T19:46:51;67.78;;;36.80;;
66575;SDS011;53428;47.686;16.584;2022-10-16T19:51:50;57.33;;;35.47;;
66575;SDS011;53428;47.686;16.584;2022-10-16T19:56:49;64.05;;;37.58;;
66575;SDS011;53428;47.686;16.584;2022-10-16T20:01:50;60.45;;;35.60;;
66575;SDS011;53428;47.686;16.584;2022-10-16T20:06:50;59.15;;;36.22;;
66575;SDS011;53428;47.686;16.584;2022-10-16T20:11:49;60.60;;;36.33;;
66575;SDS011;53428;47.686;16.584;2022-10-16T20:16:48;58.40;;;35.25;;
66575;SDS011;53428;47.686;16.584;2022-10-16T20:21:48;60.50;;;37.00;;
66575;SDS011;53428;47.686;16.584;2022-10-16T20:26:47;59.45;;;36.75;;
66575;SDS011;53428;47.686;16.584;2022-10-16T20:31:46;63.90;;;37.78;;
66575;SDS011;53428;47.686;16.584;2022-10-16T20:36:45;65.10;;;38.95;;
66575;SDS011;53428;47.686;16.584;2022-10-16T20:41:45;67.90;;;40.00;;
66575;SDS011;53428;47.686;16.584;2022-10-16T20:46:44;65.40;;;38.03;;
66575;SDS011;53428;47.686;16.584;2022-10-16T20:51:43;66.38;;;36.30;;
66575;SDS011;53428;47.686;16.584;2022-10-16T20:56:43;57.47;;;37.17;;
66575;SDS011;53428;47.686;16.584;2022-10-16T21:01:42;67.43;;;39.67;;
66575;SDS011;53428;47.686;16.584;2022-10-16T21:06:42;64.75;;;37.22;;
66575;SDS011;53428;47.686;16.584;2022-10-16T21:11:42;71.68;;;39.78;;
66575;SDS011;53428;47.686;16.584;2022-10-16T21:16:42;60.75;;;36.53;;
66575;SDS011;53428;47.686;16.584;2022-10-16T21:21:41;77.75;;;40.33;;
66575;SDS011;53428;47.686;16.584;2022-10-16T21:26:40;67.68;;;38.97;;
66575;SDS011;53428;47.686;16.584;2022-10-16T21:31:40;68.03;;;40.05;;
66575;SDS011;53428;47.686;16.584;2022-10-16T21:36:40;63.83;;;36.95;;
66575;SDS011;53428;47.686;16.584;2022-10-16T21:41:40;60.63;;;37.83;;
66575;SDS011;53428;47.686;16.584;2022-10-16T21:46:42;65.40;;;37.28;;
66575;SDS011;53428;47.686;16.584;2022-10-16T21:51:43;74.95;;;37.72;;
66575;SDS011;53428;47.686;16.584;2022-10-16T21:56:44;59.20;;;36.85;;
66575;SDS011;53428;47.686;16.584;2022-10-16T22:01:44;67.88;;;37.45;;
66575;SDS011;53428;47.686;16.584;2022-10-16T22:06:43;58.60;;;34.55;;
66575;SDS011;53428;47.686;16.584;2022-10-16T22:11:43;65.78;;;36.25;;
66575;SDS011;53428;47.686;16.584;2022-10-16T22:16:43;62.00;;;35.60;;
66575;SDS011;53428;47.686;16.584;2022-10-16T22:21:43;63.20;;;34.92;;
66575;SDS011;53428;47.686;16.584;2022-10-16T22:26:44;67.53;;;36.10;;
66575;SDS011;53428;47.686;16.584;2022-10-16T22:31:44;64.90;;;38.45;;
66575;SDS011;53428;47.686;16.584;2022-10-16T22:36:43;73.13;;;36.60;;
66575;SDS011;53428;47.686;16.584;2022-10-16T22:41:43;60.00;;;34.90;;
66575;SDS011;53428;47.686;16.584;2022-10-16T22:46:42;62.55;;;34.92;;
66575;SDS011;53428;47.686;16.584;2022-10-16T22:51:42;68.50;;;36.83;;
66575;SDS011;53428;47.686;16.584;2022-10-16T22:56:41;66.55;;;39.95;;
66575;SDS011;53428;47.686;16.584;2022-10-16T23:01:40;73.13;;;39.35;;
66575;SDS011;53428;47.686;16.584;2022-10-16T23:06:40;60.13;;;37.00;;
66575;SDS011;53428;47.686;16.584;2022-10-16T23:11:39;67.25;;;39.20;;
66575;SDS011;53428;47.686;16.584;2022-10-16T23:16:39;68.18;;;37.47;;
66575;SDS011;53428;47.686;16.584;2022-10-16T23:21:38;75.45;;;39.92;;
66575;SDS011;53428;47.686;16.584;2022-10-16T23:26:37;74.00;;;39.95;;
66575;SDS011;53428;47.686;16.584;2022-10-16T23:31:36;69.78;;;39.20;;
66575;SDS011;53428;47.686;16.584;2022-10-16T23:36:36;74.15;;;40.70;;
66575;SDS011;53428;47.686;16.584;2022-10-16T23:41:35;64.57;;;37.63;;
66575;SDS011;53428;47.686;16.584;2022-10-16T23:46:34;70.07;;;39.58;;
66575;SDS011;53428;47.686;16.584;2022-10-16T23:51:34;69.15;;;39.67;;
66575;SDS011;53428;47.686;16.584;2022-10-16T23:56:33;74.85;;;40.78;;
